CheckWX is a tool to help pilots better visualize weather data.  It is not intended as a substitute for an official pre-flight weather briefing.

12:48:11 UTC

EGUW METAR
RAF Wattisham Airport
Stowmarket, United Kingdom
Current

28 mins ago

EGUW 161220Z 25011KT 9999 FEW020 SCT090 BKN250 15/13 Q1001 NOSIG RMK BLU BLU
Observed
Oct-16 @ 12:20 UTC
Wind
  • 250° at 11 KTS
Visibility
10,000+ meters
Flight Rules
VFR
Cloud Levels
  • Few at 2,000' AGL
  • Scattered at 9,000' AGL
  • Broken at 25,000' AGL
Temperature
15°C / 59°F
Dewpoint
13°C / 55°F
Humidity
88%
Altimeter
29.56" Hg
Pressure
1000.92 hPa
Previous

58 mins ago

EGUW 161150Z 26014KT 9999 FEW010 BKN020 15/13 Q1001 BECMG FEW020 RMK WHT BECMG BLU
Observed
Oct-16 @ 11:50 UTC
Wind
  • 260° at 14 KTS
Visibility
10,000+ meters
Flight Rules
MVFR
Cloud Levels
  • Few at 1,000' AGL
  • Broken at 2,000' AGL
Temperature
15°C / 59°F
Dewpoint
13°C / 55°F
Humidity
88%
Altimeter
29.56" Hg
Pressure
1000.92 hPa
Previous

1 hour ago

EGUW 161120Z 22011KT 9999 FEW013 BKN015 BKN140 16/15 Q1000 BECMG FEW015 RMK WHT BECMG BLU
Observed
Oct-16 @ 11:20 UTC
Wind
  • 220° at 11 KTS
Visibility
10,000+ meters
Flight Rules
MVFR
Cloud Levels
  • Few at 1,300' AGL
  • Broken at 1,500' AGL
  • Broken at 14,000' AGL
Temperature
16°C / 61°F
Dewpoint
15°C / 59°F
Humidity
94%
Altimeter
29.53" Hg
Pressure
999.92 hPa